Alaskan Explorer — WDB9918 — position and weather

sailwx.info

Track history (hours):
 
Tides and Currents Weather Stations Pressure Air Temp Water Temp Dewpoint Dewpoint Depression Visibility Wind Speed Wind Dir Waves Ship Positions

Alaskan Explorer

Owner: ALASKA TANKER COMPANY, LLC, Beaverton, OR. More information available from US FCC via Universal Licensing System and Coast Guard Vessel Documentation Center.

Last reported at 2018-Feb-22 11:28 UTC. Time now 2018-Feb-24 10:17 UTC.
Position N 48°30' W 126°45'.

Type: Tanker. MMSI: 303294000.

Date/timePositionNaut miles runAvg speedWind from/ knotsBaromVisibWave heightAir tempDewpointWater temp
2018-Feb-22 11:28N 48°30' W 126°45'714.1
2018-Feb-22 11:00N 48°30' W 126°35'714.1
2018-Feb-22 10:30N 48°30' W 126°25'714.5
2018-Feb-22 10:00N 48°28' W 126°15'713.9
2018-Feb-22 09:30N 48°27' W 126°04'713.8
2018-Feb-22 09:00N 48°27' W 125°54'714.6
2018-Feb-22 08:30N 48°30' W 125°44'714.6
2018-Feb-22 08:00N 48°31' W 125°33'814.8
2018-Feb-22 07:30N 48°31' W 125°21'714.6
2018-Feb-22 07:00N 48°31' W 125°11'714.9
2018-Feb-22 06:30N 48°31' W 124°59'815.6
2018-Feb-22 06:00N 48°31' W 124°48'815.3
2018-Feb-22 05:30N 48°29' W 124°37'815.4
2018-Feb-22 05:00N 48°26' W 124°26'815.2
2018-Feb-22 04:30N 48°23' W 124°15'815.1
2018-Feb-22 04:00N 48°20' W 124°05'815.1
2018-Feb-22 03:29N 48°17' W 123°54'1714.4
2018-Feb-22 02:17N 48°14' W 123°28'712.1
2018-Feb-22 01:44N 48°08' W 123°23'2 0.1
2018-Feb-21 14:44N 48°08' W 123°25'0 0.0
2018-Feb-21 14:29N 48°08' W 123°25'0 0.0
2018-Feb-21 13:59N 48°08' W 123°25'0 0.1
2018-Feb-21 13:26N 48°08' W 123°25'0 0.0
2018-Feb-21 12:59N 48°08' W 123°25'0 0.0
2018-Feb-21 12:26N 48°08' W 123°25'0 0.1
2018-Feb-21 11:11N 48°08' W 123°25'0 0.2
2018-Feb-21 10:53N 48°08' W 123°25'0 0.0
2018-Feb-21 10:29N 48°08' W 123°25'0 0.0
2018-Feb-21 09:59N 48°08' W 123°25'0 0.1
2018-Feb-21 09:30N 48°08' W 123°25'0 0.7
2018-Feb-21 09:00N 48°08' W 123°24'2 4.5
2018-Feb-21 08:31N 48°09' W 123°22'713.1
2018-Feb-21 08:00N 48°13' W 123°14'816.2
2018-Feb-21 07:30N 48°18' W 123°04'816.1
2018-Feb-21 07:00N 48°22' W 122°54'815.3
2018-Feb-21 06:30N 48°27' W 122°45'815.7
2018-Feb-21 06:00N 48°35' W 122°45'714.2
2018-Feb-21 05:30N 48°42' W 122°44'714.2
2018-Feb-21 05:00N 48°49' W 122°46'3 4.0
2018-Feb-21 04:22N 48°52' W 122°45'0 0.0
2018-Feb-21 03:58N 48°52' W 122°45'0 0.0
2018-Feb-19 19:02N 48°52' W 122°45'0 0.0
2018-Feb-19 19:00N 48°52' W 122°45'0 0.0
2018-Feb-19 18:30N 48°52' W 122°45'1 1.7
2018-Feb-19 18:00N 48°51' W 122°45'3 5.8
2018-Feb-19 17:30N 48°48' W 122°45'611.0
2018-Feb-19 17:00N 48°43' W 122°44'611.7
2018-Feb-19 16:30N 48°38' W 122°39'3 6.2
2018-Feb-19 16:00N 48°37' W 122°34'0 0.2
2018-Feb-19 15:24N 48°37' W 122°34'0 0.1
2018-Feb-19 15:00N 48°37' W 122°34'0 0.1
2018-Feb-19 14:18N 48°37' W 122°34'0 0.0
2018-Feb-19 14:00N 48°37' W 122°34'0 0.0
2018-Feb-19 13:24N 48°37' W 122°34'0 0.0
2018-Feb-19 13:00N 48°37' W 122°34'0 0.0
2018-Feb-19 12:30N 48°37' W 122°34'0 0.0
2018-Feb-19 12:00N 48°37' W 122°34'0 0.0
2018-Feb-19 11:30N 48°37' W 122°34'0 0.0
2018-Feb-19 11:00N 48°37' W 122°34'0 0.0
2018-Feb-19 10:30N 48°37' W 122°34'0 0.1
2018-Feb-19 10:00N 48°37' W 122°34'0 0.0
2018-Feb-19 09:30N 48°37' W 122°34'0 0.1
2018-Feb-19 09:00N 48°37' W 122°34'0 0.0
2018-Feb-19 08:21N 48°37' W 122°34'0 0.1
2018-Feb-19 07:54N 48°37' W 122°34'0 0.0
2018-Feb-19 07:30N 48°37' W 122°34'0 0.0
2018-Feb-19 06:54N 48°37' W 122°34'0 0.0
2018-Feb-19 06:30N 48°37' W 122°34'0 0.0
2018-Feb-19 06:00N 48°37' W 122°34'0 0.0
2018-Feb-19 05:30N 48°37' W 122°34'0 0.0
2018-Feb-19 05:00N 48°37' W 122°34'0 0.0
2018-Feb-19 04:06N 48°37' W 122°34'0 0.1
2018-Feb-19 04:00N 48°37' W 122°34'0 0.0
2018-Feb-19 03:30N 48°37' W 122°34'0 0.0
2018-Feb-19 03:00N 48°37' W 122°34'0 0.1
2018-Feb-19 02:24N 48°37' W 122°34'0 0.0
2018-Feb-19 02:00N 48°37' W 122°34'0 0.1
2018-Feb-19 01:30N 48°37' W 122°34'0 0.1
2018-Feb-19 01:00N 48°37' W 122°34'0 0.0
2018-Feb-19 00:30N 48°37' W 122°34'0 0.1
2018-Feb-18 23:54N 48°37' W 122°34'0 0.1
2018-Feb-18 23:24N 48°37' W 122°34'0 0.1
2018-Feb-18 22:51N 48°37' W 122°34'0 0.1
2018-Feb-18 22:18N 48°37' W 122°34'0 0.0
2018-Feb-18 21:54N 48°37' W 122°34'0 0.1
2018-Feb-18 21:30N 48°37' W 122°34'0 0.1
2018-Feb-18 20:57N 48°37' W 122°34'0 0.1
2018-Feb-18 20:30N 48°37' W 122°34'0 0.0
2018-Feb-18 19:54N 48°37' W 122°34'0 0.0
2018-Feb-18 19:24N 48°37' W 122°34'0 0.0
2018-Feb-18 19:00N 48°37' W 122°34'0 0.0
2018-Feb-18 18:30N 48°37' W 122°34'0 0.0
2018-Feb-18 18:00N 48°37' W 122°34'0 0.0
2018-Feb-18 17:30N 48°37' W 122°34'0 0.0
2018-Feb-18 16:48N 48°37' W 122°34'0 0.0
2018-Feb-18 16:30N 48°37' W 122°34'0 0.1
2018-Feb-18 15:48N 48°37' W 122°34'0 0.0
2018-Feb-18 15:24N 48°37' W 122°34'0 0.0
2018-Feb-18 15:00N 48°37' W 122°34'0 0.0
2018-Feb-18 14:30N 48°37' W 122°34'0 0.1
2018-Feb-18 14:00N 48°37' W 122°34'0 0.0
2018-Feb-18 13:30N 48°37' W 122°34'0 0.4
2018-Feb-18 12:54N 48°37' W 122°34'0 0.3
2018-Feb-18 12:30N 48°37' W 122°34'0 0.1
2018-Feb-18 12:00N 48°37' W 122°34'0 0.1
2018-Feb-18 11:30N 48°37' W 122°34'0 0.0
2018-Feb-18 11:00N 48°37' W 122°34'0 0.1
2018-Feb-18 10:27N 48°37' W 122°34'0 0.1
2018-Feb-18 10:00N 48°37' W 122°34'0 0.0
2018-Feb-18 09:30N 48°37' W 122°34'0 0.0
2018-Feb-18 08:57N 48°37' W 122°34'0 0.4
2018-Feb-18 08:21N 48°37' W 122°34'0 0.5
2018-Feb-18 08:00N 48°37' W 122°34'1 1.9
2018-Feb-18 07:30N 48°37' W 122°36'3 7.0
2018-Feb-18 07:00N 48°39' W 122°40'510.6
2018-Feb-18 06:30N 48°43' W 122°45'510.8
2018-Feb-18 06:00N 48°49' W 122°46'3 0.1
2018-Feb-16 16:14N 48°52' W 122°45'0 0.0
2018-Feb-16 16:00N 48°52' W 122°45'1 1.6
2018-Feb-16 15:31N 48°51' W 122°45'4 7.8
2018-Feb-16 14:59N 48°47' W 122°46'611.5
2018-Feb-16 14:30N 48°42' W 122°43'5 9.5
2018-Feb-16 14:00N 48°37' W 122°45'510.6
2018-Feb-16 13:30N 48°32' W 122°44'510.2
2018-Feb-16 13:00N 48°27' W 122°46'714.0
2018-Feb-16 12:31N 48°22' W 122°53'814.8
2018-Feb-16 11:59N 48°18' W 123°03'714.9
2018-Feb-16 11:29N 48°13' W 123°12'813.6
2018-Feb-16 10:53N 48°09' W 123°22'2 3.7
2018-Feb-16 10:27N 48°08' W 123°24'0 0.4
2018-Feb-16 09:59N 48°08' W 123°24'0 0.1
2018-Feb-16 07:44N 48°08' W 123°24'0 0.0
2018-Feb-15 14:50N 48°08' W 123°24'0 0.1
2018-Feb-15 14:20N 48°08' W 123°24'0 0.0
2018-Feb-15 13:53N 48°08' W 123°24'0 0.2
2018-Feb-15 13:29N 48°08' W 123°24'0 0.1
2018-Feb-15 12:56N 48°08' W 123°24'0 0.1
2018-Feb-15 12:29N 48°08' W 123°24'0 0.0
2018-Feb-15 11:59N 48°08' W 123°24'0 0.0
2018-Feb-15 11:29N 48°08' W 123°24'0 0.1
2018-Feb-15 10:56N 48°08' W 123°24'0 0.0
2018-Feb-15 10:05N 48°08' W 123°24'0 0.0
2018-Feb-15 09:56N 48°08' W 123°24'0 0.1
2018-Feb-15 09:29N 48°08' W 123°24'0 0.0
2018-Feb-15 08:59N 48°08' W 123°24'0 0.0
2018-Feb-15 08:26N 48°08' W 123°24'0 0.0
2018-Feb-15 07:59N 48°08' W 123°24'0 0.1
2018-Feb-15 07:20N 48°08' W 123°24'0 0.2
2018-Feb-15 06:53N 48°08' W 123°24'0 0.3
2018-Feb-15 06:23N 48°08' W 123°24'0 0.2
2018-Feb-15 05:59N 48°08' W 123°24'0 0.2
2018-Feb-15 05:29N 48°08' W 123°24'0 0.0
2018-Feb-14 20:53N 48°08' W 123°24'0 0.1
2018-Feb-14 16:50N 48°08' W 123°24'0 0.1
2018-Feb-14 15:17N 48°08' W 123°24'0 0.3
2018-Feb-14 14:53N 48°08' W 123°24'0 0.1
2018-Feb-14 14:11N 48°08' W 123°24'0 0.1
2018-Feb-14 13:59N 48°08' W 123°24'0 0.0
2018-Feb-14 13:29N 48°08' W 123°24'0 0.1
2018-Feb-14 12:59N 48°08' W 123°24'0 0.0
2018-Feb-14 12:26N 48°08' W 123°24'0 0.0
2018-Feb-14 11:56N 48°08' W 123°24'0 0.0
2018-Feb-14 11:29N 48°08' W 123°24'0 0.0
2018-Feb-14 10:53N 48°08' W 123°24'0 0.1
2018-Feb-14 10:29N 48°08' W 123°24'0 0.0
2018-Feb-14 09:56N 48°08' W 123°24'0 0.0
2018-Feb-14 09:29N 48°08' W 123°24'0 0.0
2018-Feb-14 08:53N 48°08' W 123°24'0 0.0
2018-Feb-14 08:29N 48°08' W 123°24'0 0.0
2018-Feb-14 07:59N 48°08' W 123°24'0 0.0
2018-Feb-14 07:29N 48°08' W 123°24'0 0.3
2018-Feb-14 06:59N 48°08' W 123°24'0 0.3
2018-Feb-14 06:29N 48°08' W 123°24'0 0.1
2018-Feb-14 05:59N 48°08' W 123°24'0 0.1
2018-Feb-14 05:26N 48°08' W 123°24'0 0.0
2018-Feb-14 03:32N 48°08' W 123°24'0 0.0
2018-Feb-13 15:45N 48°08' W 123°24'0 0.0
2018-Feb-13 15:05N 48°08' W 123°24'0 0.1
2018-Feb-13 14:59N 48°08' W 123°24'0 0.0
2018-Feb-13 14:17N 48°08' W 123°24'0 0.0
2018-Feb-13 13:59N 48°08' W 123°24'0 0.1
2018-Feb-13 13:23N 48°08' W 123°24'0 0.0
2018-Feb-13 12:56N 48°08' W 123°24'0 0.0
2018-Feb-13 12:26N 48°08' W 123°24'0 0.0
2018-Feb-13 11:59N 48°08' W 123°24'0 0.1
2018-Feb-13 11:26N 48°08' W 123°24'0 0.0
2018-Feb-13 10:59N 48°08' W 123°24'0 0.0
2018-Feb-13 10:29N 48°08' W 123°24'0 0.0
2018-Feb-13 09:53N 48°08' W 123°24'0 0.0
2018-Feb-13 09:26N 48°08' W 123°24'0 0.0
2018-Feb-13 08:56N 48°08' W 123°24'0 0.0
2018-Feb-13 08:26N 48°08' W 123°24'0 0.0
2018-Feb-13 07:53N 48°08' W 123°24'0 0.0
2018-Feb-13 07:29N 48°08' W 123°24'0 0.1
2018-Feb-13 06:53N 48°08' W 123°24'0 0.3
2018-Feb-13 06:29N 48°08' W 123°24'0 0.4
2018-Feb-13 05:59N 48°08' W 123°24'0 0.2
2018-Feb-13 05:29N 48°08' W 123°24'0 0.1
2018-Feb-13 04:59N 48°08' W 123°24'0 0.1
2018-Feb-13 04:29N 48°08' W 123°24'0 0.0
2018-Feb-13 03:59N 48°08' W 123°24'0 0.1
2018-Feb-13 03:26N 48°08' W 123°24'0 0.2
2018-Feb-13 02:59N 48°08' W 123°24'0 0.1
2018-Feb-13 02:23N 48°08' W 123°24'0 0.0
2018-Feb-13 01:56N 48°08' W 123°24'0 0.0
2018-Feb-13 01:26N 48°08' W 123°24'0 0.0
2018-Feb-13 00:56N 48°08' W 123°24'0 0.1
2018-Feb-13 00:26N 48°08' W 123°24'0 0.2
2018-Feb-12 23:56N 48°08' W 123°24'0 0.3
2018-Feb-12 23:29N 48°08' W 123°24'0 0.1
2018-Feb-12 22:44N 48°08' W 123°24'0 0.2
2018-Feb-12 22:29N 48°08' W 123°24'0 0.1
2018-Feb-12 21:59N 48°08' W 123°24'0 0.2
2018-Feb-12 21:29N 48°08' W 123°24'0 0.0
2018-Feb-12 20:56N 48°08' W 123°24'0 0.1
2018-Feb-12 20:26N 48°08' W 123°24'0 0.1
2018-Feb-12 19:56N 48°08' W 123°24'0 0.0
2018-Feb-12 19:23N 48°08' W 123°24'0 0.0
2018-Feb-12 18:56N 48°08' W 123°24'0 0.0
2018-Feb-12 18:29N 48°08' W 123°24'0 0.1
2018-Feb-12 17:53N 48°08' W 123°24'0 0.1
2018-Feb-12 17:05N 48°08' W 123°24'0 0.3
2018-Feb-12 16:59N 48°08' W 123°24'0 0.1
2018-Feb-12 16:29N 48°08' W 123°24'0 0.0
2018-Feb-12 15:53N 48°08' W 123°24'0 0.1
2018-Feb-12 15:05N 48°08' W 123°24'0 0.0
2018-Feb-12 14:50N 48°08' W 123°24'0 0.0
2018-Feb-12 14:29N 48°08' W 123°24'0 0.1
2018-Feb-12 13:59N 48°08' W 123°24'0 0.0
2018-Feb-12 13:20N 48°08' W 123°24'0 0.1
2018-Feb-12 12:59N 48°08' W 123°24'0 0.2
2018-Feb-12 12:29N 48°08' W 123°24'0 0.1
2018-Feb-12 11:59N 48°08' W 123°24'0 0.2
2018-Feb-12 11:29N 48°08' W 123°24'  
Track history (hours):
 
Tides and Currents Weather Stations Pressure Air Temp Water Temp Dewpoint Dewpoint Depression Visibility Wind Speed Wind Dir Waves Ship Positions

Alaskan Explorer

Owner: ALASKA TANKER COMPANY, LLC, Beaverton, OR. More information available from US FCC via Universal Licensing System and Coast Guard Vessel Documentation Center.

Last reported at 2018-Feb-22 11:28 UTC. Time now 2018-Feb-24 10:17 UTC.
Position N 48°30' W 126°45'.

Type: Tanker. MMSI: 303294000.

Date/timePositionNaut miles runAvg speedWind from/ knotsBaromVisibWave heightAir tempDewpointWater temp
2018-Feb-22 11:28N 48°30' W 126°45'714.1
2018-Feb-22 11:00N 48°30' W 126°35'714.1
2018-Feb-22 10:30N 48°30' W 126°25'714.5
2018-Feb-22 10:00N 48°28' W 126°15'713.9
2018-Feb-22 09:30N 48°27' W 126°04'713.8
2018-Feb-22 09:00N 48°27' W 125°54'714.6
2018-Feb-22 08:30N 48°30' W 125°44'714.6
2018-Feb-22 08:00N 48°31' W 125°33'814.8
2018-Feb-22 07:30N 48°31' W 125°21'714.6
2018-Feb-22 07:00N 48°31' W 125°11'714.9
2018-Feb-22 06:30N 48°31' W 124°59'815.6
2018-Feb-22 06:00N 48°31' W 124°48'815.3
2018-Feb-22 05:30N 48°29' W 124°37'815.4
2018-Feb-22 05:00N 48°26' W 124°26'815.2
2018-Feb-22 04:30N 48°23' W 124°15'815.1
2018-Feb-22 04:00N 48°20' W 124°05'815.1
2018-Feb-22 03:29N 48°17' W 123°54'1714.4
2018-Feb-22 02:17N 48°14' W 123°28'712.1
2018-Feb-22 01:44N 48°08' W 123°23'2 0.1
2018-Feb-21 14:44N 48°08' W 123°25'0 0.0
2018-Feb-21 14:29N 48°08' W 123°25'0 0.0
2018-Feb-21 13:59N 48°08' W 123°25'0 0.1
2018-Feb-21 13:26N 48°08' W 123°25'0 0.0
2018-Feb-21 12:59N 48°08' W 123°25'0 0.0
2018-Feb-21 12:26N 48°08' W 123°25'0 0.1
2018-Feb-21 11:11N 48°08' W 123°25'0 0.2
2018-Feb-21 10:53N 48°08' W 123°25'0 0.0
2018-Feb-21 10:29N 48°08' W 123°25'0 0.0
2018-Feb-21 09:59N 48°08' W 123°25'0 0.1
2018-Feb-21 09:30N 48°08' W 123°25'0 0.7
2018-Feb-21 09:00N 48°08' W 123°24'2 4.5
2018-Feb-21 08:31N 48°09' W 123°22'713.1
2018-Feb-21 08:00N 48°13' W 123°14'816.2
2018-Feb-21 07:30N 48°18' W 123°04'816.1
2018-Feb-21 07:00N 48°22' W 122°54'815.3
2018-Feb-21 06:30N 48°27' W 122°45'815.7
2018-Feb-21 06:00N 48°35' W 122°45'714.2
2018-Feb-21 05:30N 48°42' W 122°44'714.2
2018-Feb-21 05:00N 48°49' W 122°46'3 4.0
2018-Feb-21 04:22N 48°52' W 122°45'0 0.0
2018-Feb-21 03:58N 48°52' W 122°45'0 0.0
2018-Feb-19 19:02N 48°52' W 122°45'0 0.0
2018-Feb-19 19:00N 48°52' W 122°45'0 0.0
2018-Feb-19 18:30N 48°52' W 122°45'1 1.7
2018-Feb-19 18:00N 48°51' W 122°45'3 5.8
2018-Feb-19 17:30N 48°48' W 122°45'611.0
2018-Feb-19 17:00N 48°43' W 122°44'611.7
2018-Feb-19 16:30N 48°38' W 122°39'3 6.2
2018-Feb-19 16:00N 48°37' W 122°34'0 0.2
2018-Feb-19 15:24N 48°37' W 122°34'0 0.1
2018-Feb-19 15:00N 48°37' W 122°34'0 0.1
2018-Feb-19 14:18N 48°37' W 122°34'0 0.0
2018-Feb-19 14:00N 48°37' W 122°34'0 0.0
2018-Feb-19 13:24N 48°37' W 122°34'0 0.0
2018-Feb-19 13:00N 48°37' W 122°34'0 0.0
2018-Feb-19 12:30N 48°37' W 122°34'0 0.0
2018-Feb-19 12:00N 48°37' W 122°34'0 0.0
2018-Feb-19 11:30N 48°37' W 122°34'0 0.0
2018-Feb-19 11:00N 48°37' W 122°34'0 0.0
2018-Feb-19 10:30N 48°37' W 122°34'0 0.1
2018-Feb-19 10:00N 48°37' W 122°34'0 0.0
2018-Feb-19 09:30N 48°37' W 122°34'0 0.1
2018-Feb-19 09:00N 48°37' W 122°34'0 0.0
2018-Feb-19 08:21N 48°37' W 122°34'0 0.1
2018-Feb-19 07:54N 48°37' W 122°34'0 0.0
2018-Feb-19 07:30N 48°37' W 122°34'0 0.0
2018-Feb-19 06:54N 48°37' W 122°34'0 0.0
2018-Feb-19 06:30N 48°37' W 122°34'0 0.0
2018-Feb-19 06:00N 48°37' W 122°34'0 0.0
2018-Feb-19 05:30N 48°37' W 122°34'0 0.0
2018-Feb-19 05:00N 48°37' W 122°34'0 0.0
2018-Feb-19 04:06N 48°37' W 122°34'0 0.1
2018-Feb-19 04:00N 48°37' W 122°34'0 0.0
2018-Feb-19 03:30N 48°37' W 122°34'0 0.0
2018-Feb-19 03:00N 48°37' W 122°34'0 0.1
2018-Feb-19 02:24N 48°37' W 122°34'0 0.0
2018-Feb-19 02:00N 48°37' W 122°34'0 0.1
2018-Feb-19 01:30N 48°37' W 122°34'0 0.1
2018-Feb-19 01:00N 48°37' W 122°34'0 0.0
2018-Feb-19 00:30N 48°37' W 122°34'0 0.1
2018-Feb-18 23:54N 48°37' W 122°34'0 0.1
2018-Feb-18 23:24N 48°37' W 122°34'0 0.1
2018-Feb-18 22:51N 48°37' W 122°34'0 0.1
2018-Feb-18 22:18N 48°37' W 122°34'0 0.0
2018-Feb-18 21:54N 48°37' W 122°34'0 0.1
2018-Feb-18 21:30N 48°37' W 122°34'0 0.1
2018-Feb-18 20:57N 48°37' W 122°34'0 0.1
2018-Feb-18 20:30N 48°37' W 122°34'0 0.0
2018-Feb-18 19:54N 48°37' W 122°34'0 0.0
2018-Feb-18 19:24N 48°37' W 122°34'0 0.0
2018-Feb-18 19:00N 48°37' W 122°34'0 0.0
2018-Feb-18 18:30N 48°37' W 122°34'0 0.0
2018-Feb-18 18:00N 48°37' W 122°34'0 0.0
2018-Feb-18 17:30N 48°37' W 122°34'0 0.0
2018-Feb-18 16:48N 48°37' W 122°34'0 0.0
2018-Feb-18 16:30N 48°37' W 122°34'0 0.1
2018-Feb-18 15:48N 48°37' W 122°34'0 0.0
2018-Feb-18 15:24N 48°37' W 122°34'0 0.0
2018-Feb-18 15:00N 48°37' W 122°34'0 0.0
2018-Feb-18 14:30N 48°37' W 122°34'0 0.1
2018-Feb-18 14:00N 48°37' W 122°34'0 0.0
2018-Feb-18 13:30N 48°37' W 122°34'0 0.4
2018-Feb-18 12:54N 48°37' W 122°34'0 0.3
2018-Feb-18 12:30N 48°37' W 122°34'0 0.1
2018-Feb-18 12:00N 48°37' W 122°34'0 0.1
2018-Feb-18 11:30N 48°37' W 122°34'0 0.0
2018-Feb-18 11:00N 48°37' W 122°34'0 0.1
2018-Feb-18 10:27N 48°37' W 122°34'0 0.1
2018-Feb-18 10:00N 48°37' W 122°34'0 0.0
2018-Feb-18 09:30N 48°37' W 122°34'0 0.0
2018-Feb-18 08:57N 48°37' W 122°34'0 0.4
2018-Feb-18 08:21N 48°37' W 122°34'0 0.5
2018-Feb-18 08:00N 48°37' W 122°34'1 1.9
2018-Feb-18 07:30N 48°37' W 122°36'3 7.0
2018-Feb-18 07:00N 48°39' W 122°40'510.6
2018-Feb-18 06:30N 48°43' W 122°45'510.8
2018-Feb-18 06:00N 48°49' W 122°46'3 0.1
2018-Feb-16 16:14N 48°52' W 122°45'0 0.0
2018-Feb-16 16:00N 48°52' W 122°45'1 1.6
2018-Feb-16 15:31N 48°51' W 122°45'4 7.8
2018-Feb-16 14:59N 48°47' W 122°46'611.5
2018-Feb-16 14:30N 48°42' W 122°43'5 9.5
2018-Feb-16 14:00N 48°37' W 122°45'510.6
2018-Feb-16 13:30N 48°32' W 122°44'510.2
2018-Feb-16 13:00N 48°27' W 122°46'714.0
2018-Feb-16 12:31N 48°22' W 122°53'814.8
2018-Feb-16 11:59N 48°18' W 123°03'714.9
2018-Feb-16 11:29N 48°13' W 123°12'813.6
2018-Feb-16 10:53N 48°09' W 123°22'2 3.7
2018-Feb-16 10:27N 48°08' W 123°24'0 0.4
2018-Feb-16 09:59N 48°08' W 123°24'0 0.1
2018-Feb-16 07:44N 48°08' W 123°24'0 0.0
2018-Feb-15 14:50N 48°08' W 123°24'0 0.1
2018-Feb-15 14:20N 48°08' W 123°24'0 0.0
2018-Feb-15 13:53N 48°08' W 123°24'0 0.2
2018-Feb-15 13:29N 48°08' W 123°24'0 0.1
2018-Feb-15 12:56N 48°08' W 123°24'0 0.1
2018-Feb-15 12:29N 48°08' W 123°24'0 0.0
2018-Feb-15 11:59N 48°08' W 123°24'0 0.0
2018-Feb-15 11:29N 48°08' W 123°24'0 0.1
2018-Feb-15 10:56N 48°08' W 123°24'0 0.0
2018-Feb-15 10:05N 48°08' W 123°24'0 0.0
2018-Feb-15 09:56N 48°08' W 123°24'0 0.1
2018-Feb-15 09:29N 48°08' W 123°24'0 0.0
2018-Feb-15 08:59N 48°08' W 123°24'0 0.0
2018-Feb-15 08:26N 48°08' W 123°24'0 0.0
2018-Feb-15 07:59N 48°08' W 123°24'0 0.1
2018-Feb-15 07:20N 48°08' W 123°24'0 0.2
2018-Feb-15 06:53N 48°08' W 123°24'0 0.3
2018-Feb-15 06:23N 48°08' W 123°24'0 0.2
2018-Feb-15 05:59N 48°08' W 123°24'0 0.2
2018-Feb-15 05:29N 48°08' W 123°24'0 0.0
2018-Feb-14 20:53N 48°08' W 123°24'0 0.1
2018-Feb-14 16:50N 48°08' W 123°24'0 0.1
2018-Feb-14 15:17N 48°08' W 123°24'0 0.3
2018-Feb-14 14:53N 48°08' W 123°24'0 0.1
2018-Feb-14 14:11N 48°08' W 123°24'0 0.1
2018-Feb-14 13:59N 48°08' W 123°24'0 0.0
2018-Feb-14 13:29N 48°08' W 123°24'0 0.1
2018-Feb-14 12:59N 48°08' W 123°24'0 0.0
2018-Feb-14 12:26N 48°08' W 123°24'0 0.0
2018-Feb-14 11:56N 48°08' W 123°24'0 0.0
2018-Feb-14 11:29N 48°08' W 123°24'0 0.0
2018-Feb-14 10:53N 48°08' W 123°24'0 0.1
2018-Feb-14 10:29N 48°08' W 123°24'0 0.0
2018-Feb-14 09:56N 48°08' W 123°24'0 0.0
2018-Feb-14 09:29N 48°08' W 123°24'0 0.0
2018-Feb-14 08:53N 48°08' W 123°24'0 0.0
2018-Feb-14 08:29N 48°08' W 123°24'0 0.0
2018-Feb-14 07:59N 48°08' W 123°24'0 0.0
2018-Feb-14 07:29N 48°08' W 123°24'0 0.3
2018-Feb-14 06:59N 48°08' W 123°24'0 0.3
2018-Feb-14 06:29N 48°08' W 123°24'0 0.1
2018-Feb-14 05:59N 48°08' W 123°24'0 0.1
2018-Feb-14 05:26N 48°08' W 123°24'0 0.0
2018-Feb-14 03:32N 48°08' W 123°24'0 0.0
2018-Feb-13 15:45N 48°08' W 123°24'0 0.0
2018-Feb-13 15:05N 48°08' W 123°24'0 0.1
2018-Feb-13 14:59N 48°08' W 123°24'0 0.0
2018-Feb-13 14:17N 48°08' W 123°24'0 0.0
2018-Feb-13 13:59N 48°08' W 123°24'0 0.1
2018-Feb-13 13:23N 48°08' W 123°24'0 0.0
2018-Feb-13 12:56N 48°08' W 123°24'0 0.0
2018-Feb-13 12:26N 48°08' W 123°24'0 0.0
2018-Feb-13 11:59N 48°08' W 123°24'0 0.1
2018-Feb-13 11:26N 48°08' W 123°24'0 0.0
2018-Feb-13 10:59N 48°08' W 123°24'0 0.0
2018-Feb-13 10:29N 48°08' W 123°24'0 0.0
2018-Feb-13 09:53N 48°08' W 123°24'0 0.0
2018-Feb-13 09:26N 48°08' W 123°24'0 0.0
2018-Feb-13 08:56N 48°08' W 123°24'0 0.0
2018-Feb-13 08:26N 48°08' W 123°24'0 0.0
2018-Feb-13 07:53N 48°08' W 123°24'0 0.0
2018-Feb-13 07:29N 48°08' W 123°24'0 0.1
2018-Feb-13 06:53N 48°08' W 123°24'0 0.3
2018-Feb-13 06:29N 48°08' W 123°24'0 0.4
2018-Feb-13 05:59N 48°08' W 123°24'0 0.2
2018-Feb-13 05:29N 48°08' W 123°24'0 0.1
2018-Feb-13 04:59N 48°08' W 123°24'0 0.1
2018-Feb-13 04:29N 48°08' W 123°24'0 0.0
2018-Feb-13 03:59N 48°08' W 123°24'0 0.1
2018-Feb-13 03:26N 48°08' W 123°24'0 0.2
2018-Feb-13 02:59N 48°08' W 123°24'0 0.1
2018-Feb-13 02:23N 48°08' W 123°24'0 0.0
2018-Feb-13 01:56N 48°08' W 123°24'0 0.0
2018-Feb-13 01:26N 48°08' W 123°24'0 0.0
2018-Feb-13 00:56N 48°08' W 123°24'0 0.1
2018-Feb-13 00:26N 48°08' W 123°24'0 0.2
2018-Feb-12 23:56N 48°08' W 123°24'0 0.3
2018-Feb-12 23:29N 48°08' W 123°24'0 0.1
2018-Feb-12 22:44N 48°08' W 123°24'0 0.2
2018-Feb-12 22:29N 48°08' W 123°24'0 0.1
2018-Feb-12 21:59N 48°08' W 123°24'0 0.2
2018-Feb-12 21:29N 48°08' W 123°24'0 0.0
2018-Feb-12 20:56N 48°08' W 123°24'0 0.1
2018-Feb-12 20:26N 48°08' W 123°24'0 0.1
2018-Feb-12 19:56N 48°08' W 123°24'0 0.0
2018-Feb-12 19:23N 48°08' W 123°24'0 0.0
2018-Feb-12 18:56N 48°08' W 123°24'0 0.0
2018-Feb-12 18:29N 48°08' W 123°24'0 0.1
2018-Feb-12 17:53N 48°08' W 123°24'0 0.1
2018-Feb-12 17:05N 48°08' W 123°24'0 0.3
2018-Feb-12 16:59N 48°08' W 123°24'0 0.1
2018-Feb-12 16:29N 48°08' W 123°24'0 0.0
2018-Feb-12 15:53N 48°08' W 123°24'0 0.1
2018-Feb-12 15:05N 48°08' W 123°24'0 0.0
2018-Feb-12 14:50N 48°08' W 123°24'0 0.0
2018-Feb-12 14:29N 48°08' W 123°24'0 0.1
2018-Feb-12 13:59N 48°08' W 123°24'0 0.0
2018-Feb-12 13:20N 48°08' W 123°24'0 0.1
2018-Feb-12 12:59N 48°08' W 123°24'0 0.2
2018-Feb-12 12:29N 48°08' W 123°24'0 0.1
2018-Feb-12 11:59N 48°08' W 123°24'0 0.2
2018-Feb-12 11:29N 48°08' W 123°24'  

Dump ship's entire track history